Huvudsida
METAR-TAF:

METAR-TAF

Flygplatser :

Gwadar, Pakistan

latitud: 25-13-59N, longitud: 062-19-46E, höjd: 29 m

Aktuellt väderrapport

Denna rapport gjordes för 16 timmar och 47 minuter sedan, klockan 10:55 UTC
Vind 10 kt från syd/sydväst
Temperatur 32°C
Fuktighet 59%
Tryck
Sikt: 4000 m
Få moln på en höjd av 2000 ft
torrdis

METAR: OPGD 191055Z 20010KT 4000 HZ FEW020 32/23 QNH1014 METAR

Tid: 08:42 (03:42 UTC)

Väderprognos

Denna rapport gjordes för 12 timmar och 12 minuter sedan, klockan 15:30 UTC
Prognos gäller från 19 kl. 18 UTC till 20 kl. 18 UTC
Vind 10 kt från väst
Sikt: 5000 m
torrdis
Temporärt
från 20 kl. 00 UTC till 20 kl. 04 UTC
Vind 5 kt från väst/nordväst
Sikt: 4000 m
torrdis
Från 20 kl. 0600 UTC
Vind 5 kt från sydväst i byarna ända upp till 15 kt
Sikt: 6000 m
Spridda moln på en höjd av 2000 ft

TAF: OPGD 191530Z 1918/2018 27010KT 5000 HZ NSC TEMPO 2000/2004 29005KT 4000 HZ NSC FM200600 23005G15KT 6000 SCT020

Aktuella väderrapporter och prognoser från 4000 flygplatser (METAR- och TAF-rapporter).

De tillgängliga stationerna syns som gula och röda prickar på kartan.

För musen över prickarna för att se namnen på stationerna.

Klicka sedan för att få väderrapporter och prognoser.

För att ändra kartan: Klicka på de gröna knapparna med ett svart kors på för att zooma in; den gröna knappen med ett streck på för att zooma ut; eller på de gröna pilarna för angränsande kartor.


METAR-TAF: